Terminal Aerodrome Forecast
Issued by NWS

Current Version | Previous Version | Graphics & Text | Print | Product List | Glossary On
Versions: 1 2 3 4 5 6 7 8 9 10 11 12 13 14 15 16 17 18 19 20 21 22 23
000
FTUS41 KILN 311738
TAFLUK
TAF
KLUK 311738Z 3118/0118 29009KT P6SM SCT050
     FM010200 26005KT P6SM SCT050
     FM010900 00000KT 2SM BR SKC
     FM011200 00000KT P6SM SKC
     FM011500 29004KT P6SM SCT060=

USA.gov is the U.S. government's official web portal to all federal, state and local government web resources and services.